Time;durP1;ratioP1;P1;durP2;ratioP2;P2;SDS_P1;SDS_P2;PMS_P1;PMS_P2;Temp;Humidity;BMP_temperature;BMP_pressure;BME280_temperature;BME280_humidity;BME280_pressure;Samples;Min_cycle;Max_cycle;Signal;HPM_P1;HPM_P2
2022/06/24 00:01:25;496900.00;1.66;856.49;0.00;0.00;0.62;;;;;23.10;1.80;;;;;;2276876;61;1143;-84
2022/06/24 00:03:52;948269.00;3.16;1641.06;138777.00;0.46;240.46;;;;;23.20;1.30;;;;;;2276909;61;1118;-85
2022/06/24 00:06:19;742167.00;2.47;1280.44;98630.00;0.33;171.21;;;;;23.20;1.80;;;;;;2276900;61;998;-87
2022/06/24 00:08:57;821290.00;2.74;1418.28;69477.00;0.23;120.86;;;;;23.20;1.00;;;;;;2276857;61;1415;-85
2022/06/24 00:11:27;633494.00;2.11;1092.09;110265.00;0.37;191.29;;;;;23.20;1.00;;;;;;2276941;61;1985;-84
2022/06/24 00:14:08;1135352.00;3.78;1973.76;154161.00;0.51;266.98;;;;;23.50;1.00;;;;;;2276787;61;1083;-84
2022/06/24 00:16:54;921582.00;3.07;1594.06;132933.00;0.44;230.39;;;;;23.40;1.00;;;;;;2276771;61;1717;-85
2022/06/24 00:19:22;608697.00;2.03;1049.24;33336.00;0.11;58.36;;;;;23.50;1.00;;;;;;2276865;61;1489;-85
2022/06/24 00:22:02;688536.00;2.30;1187.36;26930.00;0.09;47.27;;;;;23.60;1.00;;;;;;2276462;61;1102;-87
2022/06/24 00:24:29;457678.00;1.53;788.99;22522.00;0.08;39.64;;;;;23.60;1.00;;;;;;2276849;61;1719;-84
2022/06/24 00:26:59;633612.00;2.11;1092.29;92490.00;0.31;160.61;;;;;23.50;1.00;;;;;;2276768;61;1094;-85
2022/06/24 00:29:27;321204.00;1.07;554.37;0.00;0.00;0.62;;;;;23.60;1.00;;;;;;2276764;61;1339;-84
2022/06/24 00:32:05;245764.00;0.82;424.67;0.00;0.00;0.62;;;;;23.50;1.00;;;;;;2276593;61;1998;-86
2022/06/24 00:34:32;486089.00;1.62;837.88;1991.00;0.01;4.07;;;;;23.40;1.00;;;;;;2276829;61;1136;-85
2022/06/24 00:37:19;800944.00;2.67;1382.77;56569.00;0.19;98.55;;;;;23.60;1.00;;;;;;2276811;61;1047;-85
2022/06/24 00:39:46;461401.00;1.54;795.39;0.00;0.00;0.62;;;;;23.60;1.00;;;;;;2276767;61;1208;-84
2022/06/24 00:42:17;667030.00;2.22;1150.11;0.00;0.00;0.62;;;;;23.50;1.00;;;;;;2276778;61;1128;-86
2022/06/24 00:44:54;699117.00;2.33;1205.71;27814.00;0.09;48.80;;;;;23.00;1.00;;;;;;2276777;61;1135;-86
2022/06/24 00:47:23;684323.00;2.28;1180.06;0.00;0.00;0.62;;;;;22.80;1.00;;;;;;2276764;61;1375;-85
2022/06/24 00:49:53;725996.00;2.42;1252.35;52965.00;0.18;92.31;;;;;22.70;1.00;;;;;;2276725;61;2137;-85
2022/06/24 00:52:21;512512.00;1.71;883.37;38513.00;0.13;67.32;;;;;22.90;1.00;;;;;;2276702;61;1989;-86
2022/06/24 00:54:47;800883.00;2.67;1382.66;125777.00;0.42;218.05;;;;;23.20;1.00;;;;;;2276695;61;1727;-85
2022/06/24 00:57:16;698767.00;2.33;1205.10;66973.00;0.22;116.53;;;;;23.60;1.00;;;;;;2276660;61;1368;-85
2022/06/24 00:59:43;613370.00;2.04;1057.31;75899.00;0.25;131.95;;;;;23.60;1.00;;;;;;2276666;61;1067;-85
2022/06/24 01:02:11;117238168.00;390.79;65273068.00;68457.00;0.23;119.09;;;;;23.40;1.00;;;;;;2276652;61;1046;-85
2022/06/24 01:04:38;308551.00;1.03;532.62;77114.00;0.26;134.05;;;;;23.70;1.00;;;;;;2276507;61;1114;-83
2022/06/24 01:07:05;358991.00;1.20;619.31;74876.00;0.25;130.19;;;;;23.70;1.00;;;;;;2276334;61;1016;-84
2022/06/24 01:09:32;366322.00;1.22;631.92;69664.00;0.23;121.18;;;;;23.60;1.00;;;;;;2276264;61;1464;-83
2022/06/24 01:11:59;308864.00;1.03;533.16;68402.00;0.23;119.00;;;;;23.40;1.00;;;;;;2276562;61;1994;-83
2022/06/24 01:14:27;451892.00;1.51;779.04;66618.00;0.22;115.92;;;;;23.70;1.00;;;;;;2276541;61;1723;-83
2022/06/24 01:16:54;294287.00;0.98;508.10;67034.00;0.22;116.63;;;;;23.70;1.00;;;;;;2276583;61;1825;-85
2022/06/24 01:19:21;406978.00;1.36;701.80;70906.00;0.24;123.33;;;;;23.60;1.00;;;;;;2276595;61;1385;-84
2022/06/24 01:21:51;199266.00;0.66;344.66;67449.00;0.22;117.35;;;;;23.50;1.00;;;;;;2276354;61;985;-83
2022/06/24 01:24:20;170554.00;0.57;295.22;69438.00;0.23;120.79;;;;;23.50;1.00;;;;;;2276435;61;1072;-84
2022/06/24 01:26:48;206578.00;0.69;357.25;65963.00;0.22;114.78;;;;;23.30;1.00;;;;;;2276386;61;1141;-84
2022/06/24 01:29:16;219124.00;0.73;378.84;69500.00;0.23;120.90;;;;;23.20;1.00;;;;;;2276234;61;1481;-84
2022/06/24 01:31:45;496519.00;1.66;855.83;83912.00;0.28;145.79;;;;;23.30;1.10;;;;;;2276372;61;1919;-84
2022/06/24 01:34:12;366216.00;1.22;631.73;77023.00;0.26;133.89;;;;;23.40;1.00;;;;;;2276435;61;1313;-84
2022/06/24 01:36:39;585237.00;1.95;1008.74;158035.00;0.53;273.65;;;;;23.40;1.00;;;;;;2276426;61;1126;-85
2022/06/24 01:39:07;352246.00;1.17;607.72;68186.00;0.23;118.63;;;;;23.30;1.00;;;;;;2276205;61;1411;-84
2022/06/24 01:41:35;209703.00;0.70;362.62;66475.00;0.22;115.67;;;;;23.40;1.00;;;;;;2276262;61;1102;-85
2022/06/24 01:44:03;451147.00;1.50;777.76;111436.00;0.37;193.31;;;;;23.40;1.00;;;;;;2276433;61;982;-85
2022/06/24 01:46:31;246988.00;0.82;426.77;74291.00;0.25;129.17;;;;;23.60;1.00;;;;;;2276466;61;1035;-85
2022/06/24 01:48:58;319889.00;1.07;552.11;62780.00;0.21;109.28;;;;;23.70;1.00;;;;;;2276495;61;1330;-84
2022/06/24 01:51:27;216148.00;0.72;373.72;67317.00;0.22;117.12;;;;;23.90;1.00;;;;;;2276516;61;1074;-84
2022/06/24 01:53:54;441425.00;1.47;761.03;127403.00;0.42;220.85;;;;;23.90;1.00;;;;;;2276374;61;1932;-83
2022/06/24 01:56:22;337669.00;1.13;582.67;64183.00;0.21;111.71;;;;;23.80;1.00;;;;;;2276464;61;998;-84
2022/06/24 01:58:49;264721.00;0.88;457.27;69566.00;0.23;121.01;;;;;23.70;1.00;;;;;;2276490;61;1371;-86
2022/06/24 02:01:16;388522.00;1.30;670.07;101650.00;0.34;176.42;;;;;23.60;1.00;;;;;;2276458;61;1380;-83
2022/06/24 02:03:43;437563.00;1.46;754.39;74067.00;0.25;128.79;;;;;23.60;1.00;;;;;;2276462;61;1073;-83
2022/06/24 02:06:12;309908.00;1.03;534.95;69074.00;0.23;120.16;;;;;23.70;1.00;;;;;;2276483;61;1037;-84
2022/06/24 02:08:40;164945.00;0.55;285.56;62131.00;0.21;108.16;;;;;23.70;1.00;;;;;;2276414;61;1352;-84
2022/06/24 02:13:58;698323.00;2.33;1204.33;68713.00;0.23;119.54;;;;;23.90;1.00;;;;;;2270483;61;1934;-84
2022/06/24 02:16:25;467602.00;1.56;806.06;100780.00;0.34;174.92;;;;;23.70;1.00;;;;;;2276435;61;1079;-86
2022/06/24 02:18:53;587222.00;1.96;1012.16;95788.00;0.32;166.30;;;;;23.60;1.00;;;;;;2276450;61;1383;-85
2022/06/24 02:21:22;807659.00;2.69;1394.48;123243.00;0.41;213.68;;;;;23.70;1.00;;;;;;2276458;61;1099;-84
2022/06/24 02:23:49;770223.00;2.57;1329.24;118972.00;0.40;206.31;;;;;23.80;1.00;;;;;;2276395;61;1002;-85
2022/06/24 02:26:16;413099.00;1.38;712.33;76096.00;0.25;132.29;;;;;23.80;1.00;;;;;;2276389;61;966;-85
2022/06/24 02:28:43;805462.00;2.68;1390.65;103393.00;0.34;179.43;;;;;23.80;1.00;;;;;;2276368;61;1382;-85
2022/06/24 02:31:12;566516.00;1.89;976.44;77446.00;0.26;134.63;;;;;23.80;1.00;;;;;;2276340;61;1028;-86
2022/06/24 02:33:39;808662.00;2.70;1396.23;119867.00;0.40;207.85;;;;;23.60;1.00;;;;;;2276256;61;1921;-84
2022/06/24 02:36:07;573674.00;1.91;988.78;129374.00;0.43;224.25;;;;;23.80;1.00;;;;;;2276412;61;919;-85
2022/06/24 02:38:34;620012.00;2.07;1068.79;164275.00;0.55;284.40;;;;;23.70;1.00;;;;;;2276327;61;2198;-84
2022/06/24 02:41:01;575282.00;1.92;991.56;91211.00;0.30;158.40;;;;;23.80;1.00;;;;;;2276328;61;1208;-86
2022/06/24 02:43:30;710441.00;2.37;1225.35;63576.00;0.21;110.66;;;;;23.70;1.00;;;;;;2276307;61;1126;-84
2022/06/24 02:45:59;557027.00;1.86;960.07;68871.00;0.23;119.81;;;;;23.80;1.00;;;;;;2276199;61;983;-85
2022/06/24 02:48:29;558250.00;1.86;962.18;74463.00;0.25;129.47;;;;;23.50;1.00;;;;;;2276030;61;1405;-84
2022/06/24 02:50:58;354832.00;1.18;612.17;0.00;0.00;0.62;;;;;23.50;1.00;;;;;;2276070;61;1051;-84
2022/06/24 02:53:26;428749.00;1.43;739.23;71193.00;0.24;123.82;;;;;23.40;1.00;;;;;;2275869;61;1930;-84
2022/06/24 02:55:56;371887.00;1.24;641.48;0.00;0.00;0.62;;;;;23.30;1.00;;;;;;2276091;61;1153;-84
2022/06/24 02:58:23;217755.00;0.73;376.48;0.00;0.00;0.62;;;;;23.40;1.00;;;;;;2276281;61;1383;-85
2022/06/24 03:00:51;454589.00;1.52;783.68;0.00;0.00;0.62;;;;;23.20;1.00;;;;;;2276238;61;1059;-84
2022/06/24 03:03:19;473916.00;1.58;816.93;0.00;0.00;0.62;;;;;23.00;1.00;;;;;;2276220;61;1047;-85
2022/06/24 03:05:48;448955.00;1.50;773.98;33656.00;0.11;58.91;;;;;22.60;1.00;;;;;;2276190;61;1030;-84
2022/06/24 03:08:18;480602.00;1.60;828.43;15406.00;0.05;27.31;;;;;22.20;1.20;;;;;;2276266;61;1311;-86
2022/06/24 03:10:45;671710.00;2.24;1158.21;21329.00;0.07;37.57;;;;;22.00;2.50;;;;;;2276236;61;1681;-85
2022/06/24 03:13:12;509583.00;1.70;878.32;13140.00;0.04;23.39;;;;;22.00;2.50;;;;;;2276212;61;1994;-85
2022/06/24 03:15:41;560804.00;1.87;966.59;0.00;0.00;0.62;;;;;21.90;3.10;;;;;;2276242;61;1136;-85
2022/06/24 03:18:08;422700.00;1.41;728.83;33498.00;0.11;58.64;;;;;22.40;1.00;;;;;;2276085;61;1381;-84
2022/06/24 03:20:35;582916.00;1.94;1004.73;28265.00;0.09;49.58;;;;;22.70;1.00;;;;;;2275951;61;1082;-86
2022/06/24 03:23:04;573063.00;1.91;987.73;20449.00;0.07;36.05;;;;;22.70;1.00;;;;;;2276129;61;1556;-86
2022/06/24 03:25:31;753142.00;2.51;1299.52;103610.00;0.35;179.80;;;;;22.60;1.00;;;;;;2276182;61;1074;-84
2022/06/24 03:27:58;613855.00;2.05;1058.15;40001.00;0.13;69.89;;;;;22.70;1.00;;;;;;2276235;61;1309;-84
2022/06/24 03:30:25;775643.00;2.59;1338.68;149802.00;0.50;259.47;;;;;22.70;1.00;;;;;;2276251;61;1045;-85
2022/06/24 03:32:52;390249.00;1.30;673.04;0.00;0.00;0.62;;;;;22.40;1.00;;;;;;2276229;61;2000;-86
2022/06/24 03:35:18;625381.00;2.08;1078.07;12616.00;0.04;22.48;;;;;22.40;1.00;;;;;;2276228;61;1016;-84
2022/06/24 03:37:45;498941.00;1.66;860.00;12543.00;0.04;22.35;;;;;22.40;1.00;;;;;;2276236;61;1391;-86
2022/06/24 03:40:14;535819.00;1.79;923.52;79847.00;0.27;138.77;;;;;22.70;1.00;;;;;;2276193;61;1103;-85
2022/06/24 03:42:40;642511.00;2.14;1107.68;32163.00;0.11;56.33;;;;;22.90;1.00;;;;;;2276201;61;1019;-86
2022/06/24 03:45:08;435572.00;1.45;750.97;28263.00;0.09;49.58;;;;;23.10;1.00;;;;;;2276137;61;1118;-86
2022/06/24 03:47:35;574554.00;1.92;990.30;21996.00;0.07;38.73;;;;;22.80;1.00;;;;;;2276101;61;1539;-85
2022/06/24 03:50:02;668382.00;2.23;1152.45;45515.00;0.15;79.43;;;;;22.80;1.00;;;;;;2276215;61;1075;-84
2022/06/24 03:52:29;582192.00;1.94;1003.48;49777.00;0.17;86.80;;;;;23.10;1.00;;;;;;2276117;61;1997;-86
2022/06/24 03:54:56;490910.00;1.64;846.18;53497.00;0.18;93.23;;;;;23.10;1.00;;;;;;2276071;61;1037;-84
2022/06/24 03:57:24;661127.00;2.20;1139.89;46721.00;0.16;81.52;;;;;23.00;1.00;;;;;;2276781;61;1322;-85
2022/06/24 03:59:51;923308.00;3.08;1597.09;38510.00;0.13;67.31;;;;;23.10;1.00;;;;;;2276765;61;1082;-87
2022/06/24 04:02:18;497384.00;1.66;857.32;0.00;0.00;0.62;;;;;23.10;1.00;;;;;;2276752;61;965;-84
2022/06/24 04:04:45;393168.00;1.31;678.06;13055.00;0.04;23.24;;;;;23.30;1.00;;;;;;2276895;61;1125;-85
2022/06/24 04:07:12;313394.00;1.04;540.94;31330.00;0.10;54.89;;;;;23.30;1.00;;;;;;2276845;61;1309;-85
2022/06/24 04:09:39;640285.00;2.13;1103.83;84622.00;0.28;147.02;;;;;23.30;1.00;;;;;;2276856;61;1130;-85
2022/06/24 04:12:06;660681.00;2.20;1139.12;175416.00;0.58;303.60;;;;;23.30;1.00;;;;;;2276834;61;1085;-85
2022/06/24 04:17:19;617594.00;2.06;1064.61;58460.00;0.19;101.81;;;;;23.20;1.00;;;;;;2276890;61;1330;-84
2022/06/24 04:19:45;746301.00;2.49;1287.63;71182.00;0.24;123.80;;;;;23.30;1.00;;;;;;2276838;61;1123;-84
2022/06/24 04:22:12;782606.00;2.61;1350.81;127491.00;0.42;221.00;;;;;23.10;1.00;;;;;;2276853;61;1118;-85
2022/06/24 04:24:39;1015732.00;3.39;1760.35;144472.00;0.48;250.28;;;;;23.30;1.00;;;;;;2276833;61;1039;-84
2022/06/24 04:27:08;618069.00;2.06;1065.43;68540.00;0.23;119.24;;;;;23.50;1.00;;;;;;2276812;61;1083;-84
2022/06/24 04:29:36;537623.00;1.79;926.63;72804.00;0.24;126.61;;;;;23.40;1.00;;;;;;2276813;61;1118;-85
2022/06/24 04:32:04;741063.00;2.47;1278.52;92672.00;0.31;160.92;;;;;23.30;1.00;;;;;;2276773;61;1142;-84
2022/06/24 04:34:30;568026.00;1.89;979.04;73618.00;0.25;128.01;;;;;23.20;1.00;;;;;;2276688;61;2155;-85
2022/06/24 04:36:57;388069.00;1.29;669.30;66233.00;0.22;115.25;;;;;23.10;1.00;;;;;;2276759;61;1079;-85
2022/06/24 04:39:24;580320.00;1.93;1000.25;70210.00;0.23;122.12;;;;;23.20;1.00;;;;;;2276565;61;1660;-84
2022/06/24 04:41:51;279923.00;0.93;483.41;68087.00;0.23;118.45;;;;;23.30;1.00;;;;;;2276584;61;1099;-85
2022/06/24 04:44:18;117073408.00;390.24;64998020.00;65458.00;0.22;113.91;;;;;23.30;1.00;;;;;;2276369;61;1065;-84
2022/06/24 04:46:46;286852.00;0.96;495.32;82142.00;0.27;142.74;;;;;23.10;1.00;;;;;;2276523;61;1072;-84
2022/06/24 04:49:13;655762.00;2.19;1130.61;110537.00;0.37;191.76;;;;;23.10;1.00;;;;;;2276686;61;1388;-85
2022/06/24 04:51:40;524618.00;1.75;904.22;65307.00;0.22;113.65;;;;;23.10;1.00;;;;;;2276764;61;1119;-85
2022/06/24 04:54:07;435604.00;1.45;751.02;67562.00;0.23;117.55;;;;;23.50;1.00;;;;;;2276541;61;1990;-85
2022/06/24 04:56:34;170167.00;0.57;294.55;75462.00;0.25;131.20;;;;;23.50;1.00;;;;;;2276664;61;1107;-84
2022/06/24 04:59:01;371067.00;1.24;640.07;61229.00;0.20;106.60;;;;;23.60;1.00;;;;;;2276619;61;1356;-84
2022/06/24 05:01:29;387979.00;1.29;669.14;123143.00;0.41;213.50;;;;;23.70;1.00;;;;;;2276707;61;913;-84
2022/06/24 05:04:00;276572.00;0.92;477.64;77029.00;0.26;133.91;;;;;23.90;1.00;;;;;;2276644;61;1044;-84
2022/06/24 05:06:27;365243.00;1.22;630.06;70301.00;0.23;122.28;;;;;24.10;1.00;;;;;;2276566;61;1091;-85
2022/06/24 05:08:54;235657.00;0.79;407.28;62606.00;0.21;108.98;;;;;24.10;1.00;;;;;;2276330;61;1391;-86
2022/06/24 05:11:21;172043.00;0.57;297.79;71502.00;0.24;124.36;;;;;24.30;1.00;;;;;;2276451;61;1100;-84
2022/06/24 05:13:48;324458.00;1.08;559.96;60657.00;0.20;105.61;;;;;24.30;1.00;;;;;;2276442;61;1994;-84
2022/06/24 05:16:15;332987.00;1.11;574.62;109925.00;0.37;190.70;;;;;24.50;1.00;;;;;;2276603;61;1043;-85
2022/06/24 05:18:42;508375.00;1.69;876.24;64096.00;0.21;111.56;;;;;24.50;1.00;;;;;;2276577;61;1268;-85
2022/06/24 05:21:10;296277.00;0.99;511.52;68984.00;0.23;120.00;;;;;24.60;1.00;;;;;;2276609;61;1040;-86
2022/06/24 05:23:37;356777.00;1.19;615.51;68540.00;0.23;119.24;;;;;24.60;1.00;;;;;;2276443;61;1103;-85
2022/06/24 05:26:04;117036912.00;390.12;64937200.00;58406.00;0.19;101.72;;;;;24.70;1.00;;;;;;2276481;61;1082;-85
2022/06/24 05:28:31;366361.00;1.22;631.98;117718.00;0.39;204.15;;;;;24.70;1.00;;;;;;2276374;61;1272;-84
2022/06/24 05:30:58;331869.00;1.11;572.70;68994.00;0.23;120.02;;;;;24.90;1.00;;;;;;2276530;61;1093;-83
2022/06/24 05:33:26;368564.00;1.23;635.77;66173.00;0.22;115.15;;;;;25.00;1.00;;;;;;2274854;61;1919;-81
2022/06/24 05:35:54;236053.00;0.79;407.96;67350.00;0.22;117.18;;;;;25.10;1.00;;;;;;2274859;61;1148;-80
2022/06/24 05:38:23;235789.00;0.79;407.51;64486.00;0.21;112.23;;;;;25.10;1.00;;;;;;2276532;61;1377;-81
2022/06/24 05:40:51;356259.00;1.19;614.62;74216.00;0.25;129.05;;;;;25.50;1.00;;;;;;2276371;61;1067;-82
2022/06/24 05:43:18;377765.00;1.26;651.58;69824.00;0.23;121.46;;;;;26.60;1.00;;;;;;2271337;61;1194;-84
2022/06/24 05:45:45;439500.00;1.47;757.72;108529.00;0.36;188.29;;;;;28.20;1.00;;;;;;2271012;61;1074;-84
2022/06/24 05:48:12;462576.00;1.54;797.42;89666.00;0.30;155.73;;;;;29.70;1.00;;;;;;2271115;61;1339;-83
2022/06/24 05:50:40;290507.00;0.97;501.60;68326.00;0.23;118.87;;;;;31.00;1.00;;;;;;2271411;61;1162;-84
2022/06/24 05:55:58;185234.00;0.62;320.50;0.00;0.00;0.62;;;;;33.30;1.00;;;;;;2271335;61;788;-84
2022/06/24 05:58:25;349924.00;1.17;603.73;120343.00;0.40;208.67;;;;;34.10;1.00;;;;;;2271422;61;1475;-84
2022/06/24 06:00:53;286142.00;0.95;494.10;60053.00;0.20;104.57;;;;;34.80;1.00;;;;;;2271571;61;1174;-85
2022/06/24 06:03:20;213386.00;0.71;368.96;63293.00;0.21;110.17;;;;;35.50;1.00;;;;;;2271321;61;1184;-85
2022/06/24 06:05:47;239954.00;0.80;414.67;43869.00;0.15;76.58;;;;;36.00;1.00;;;;;;2271457;61;1254;-85
2022/06/24 06:08:15;386164.00;1.29;666.02;59688.00;0.20;103.94;;;;;36.30;1.00;;;;;;2272438;61;1320;-85
2022/06/24 06:10:43;604585.00;2.02;1042.14;136600.00;0.46;236.71;;;;;36.90;1.00;;;;;;2273217;61;1195;-85
2022/06/24 06:13:12;194270.00;0.65;336.06;55101.00;0.18;96.01;;;;;37.20;1.00;;;;;;2272490;61;1947;-85
2022/06/24 06:15:38;282147.00;0.94;487.23;57040.00;0.19;99.36;;;;;37.50;1.00;;;;;;2273022;61;1063;-84
2022/06/24 06:18:06;382067.00;1.27;658.98;92745.00;0.31;161.05;;;;;37.90;1.00;;;;;;2274178;61;1270;-81
2022/06/24 06:20:33;345372.00;1.15;595.91;53566.00;0.18;93.35;;;;;38.20;1.00;;;;;;2275442;61;1102;-84
2022/06/24 06:22:59;386912.00;1.29;667.31;60366.00;0.20;105.11;;;;;38.20;1.00;;;;;;2275952;61;1232;-85
2022/06/24 06:25:26;342943.00;1.14;591.73;55936.00;0.19;97.45;;;;;38.40;1.00;;;;;;2276162;61;985;-85
2022/06/24 06:27:53;281083.00;0.94;485.40;47757.00;0.16;83.31;;;;;38.80;1.00;;;;;;2276133;61;1401;-85
2022/06/24 06:30:22;267240.00;0.89;461.60;48494.00;0.16;84.58;;;;;39.00;1.00;;;;;;2276277;61;1078;-85
2022/06/24 06:32:48;263368.00;0.88;454.94;57482.00;0.19;100.12;;;;;39.10;1.00;;;;;;2276128;61;1160;-85
2022/06/24 06:35:15;331527.00;1.11;572.11;42209.00;0.14;73.71;;;;;39.40;1.00;;;;;;2275522;61;1947;-84
2022/06/24 06:37:42;320429.00;1.07;553.04;54288.00;0.18;94.60;;;;;39.20;1.00;;;;;;2275271;61;1357;-86
2022/06/24 06:40:10;340655.00;1.14;587.80;61552.00;0.21;107.16;;;;;39.20;1.00;;;;;;2275998;61;1212;-85
2022/06/24 06:42:37;305468.00;1.02;527.32;57485.00;0.19;100.13;;;;;39.40;1.00;;;;;;2276183;61;1067;-85
2022/06/24 06:45:05;295635.00;0.99;510.42;51709.00;0.17;90.14;;;;;39.50;1.00;;;;;;2276234;61;1104;-85
2022/06/24 06:47:33;376632.00;1.26;649.64;53135.00;0.18;92.61;;;;;39.00;1.00;;;;;;2276332;61;1292;-86
2022/06/24 06:50:00;392307.00;1.31;676.58;46904.00;0.16;81.83;;;;;38.60;1.00;;;;;;2276375;61;1264;-85
2022/06/24 06:52:27;283701.00;0.95;489.90;54166.00;0.18;94.39;;;;;39.00;1.00;;;;;;2276304;61;1648;-86
2022/06/24 06:54:54;308136.00;1.03;531.91;52469.00;0.17;91.46;;;;;39.60;1.00;;;;;;2276248;61;1919;-86
2022/06/24 06:57:21;346755.00;1.16;598.28;61256.00;0.20;106.65;;;;;39.40;1.00;;;;;;2276267;61;1410;-86
2022/06/24 06:59:49;291143.00;0.97;502.69;57567.00;0.19;100.27;;;;;38.70;1.00;;;;;;2276358;61;1047;-85
2022/06/24 07:02:16;373326.00;1.24;643.95;46575.00;0.16;81.26;;;;;38.10;1.00;;;;;;2276307;61;1047;-85
2022/06/24 07:04:44;199269.00;0.66;344.67;52174.00;0.17;90.95;;;;;37.10;1.00;;;;;;2276350;61;1162;-85
2022/06/24 07:07:11;251375.00;0.84;434.32;67159.00;0.22;116.85;;;;;36.10;1.00;;;;;;2276343;61;1359;-85
2022/06/24 07:09:38;224884.00;0.75;388.75;59163.00;0.20;103.03;;;;;35.40;1.00;;;;;;2276372;61;1031;-85
2022/06/24 07:12:06;167174.00;0.56;289.40;57688.00;0.19;100.48;;;;;35.60;1.00;;;;;;2276458;61;1121;-85
2022/06/24 07:14:33;369060.00;1.23;636.62;69594.00;0.23;121.06;;;;;35.70;1.00;;;;;;2276415;61;1923;-86
2022/06/24 07:17:00;117093408.00;390.31;65031368.00;50496.00;0.17;88.04;;;;;35.50;1.00;;;;;;2276513;61;1054;-86
2022/06/24 07:19:27;117709504.00;392.37;66064204.00;54537.00;0.18;95.03;;;;;35.00;1.00;;;;;;2276299;61;1419;-84
2022/06/24 07:21:56;373453.00;1.24;644.17;59605.00;0.20;103.79;;;;;34.20;1.00;;;;;;2276139;61;1122;-86
2022/06/24 07:24:22;297812.00;0.99;514.16;62357.00;0.21;108.55;;;;;33.40;1.00;;;;;;2276293;61;1120;-86
2022/06/24 07:26:49;717641.00;2.39;1237.84;167411.00;0.56;289.81;;;;;33.20;1.00;;;;;;2276245;61;1094;-84
2022/06/24 07:29:16;363506.00;1.21;627.07;57232.00;0.19;99.69;;;;;33.30;1.00;;;;;;2276332;61;1403;-84
2022/06/24 07:31:47;303011.00;1.01;523.10;60564.00;0.20;105.45;;;;;33.90;1.00;;;;;;2276681;61;1005;-85
2022/06/24 07:34:14;367353.00;1.22;633.69;63720.00;0.21;110.91;;;;;35.00;1.00;;;;;;2276944;61;1988;-86
2022/06/24 07:36:41;508071.00;1.69;875.72;91990.00;0.31;159.74;;;;;34.90;1.00;;;;;;2276964;61;1146;-85
2022/06/24 07:39:09;387178.00;1.29;667.76;62171.00;0.21;108.23;;;;;34.30;1.00;;;;;;2276873;61;1389;-84
2022/06/24 07:41:36;453628.00;1.51;782.02;58852.00;0.20;102.49;;;;;33.50;1.00;;;;;;2276866;61;1120;-85
2022/06/24 07:44:04;410883.00;1.37;708.52;66469.00;0.22;115.66;;;;;32.80;1.00;;;;;;2276954;61;1064;-85
2022/06/24 07:46:31;438001.00;1.46;755.15;58085.00;0.19;101.17;;;;;32.40;1.00;;;;;;2276907;61;1136;-85
2022/06/24 07:48:58;751702.00;2.51;1297.02;67052.00;0.22;116.67;;;;;32.10;1.00;;;;;;2276868;61;1343;-85
2022/06/24 07:51:25;573760.00;1.91;988.93;65281.00;0.22;113.61;;;;;31.40;1.00;;;;;;2276888;61;1585;-85
2022/06/24 07:53:52;513250.00;1.71;884.64;60044.00;0.20;104.55;;;;;31.30;1.00;;;;;;2276834;61;1918;-85
2022/06/24 07:59:05;275196.00;0.92;475.28;0.00;0.00;0.62;;;;;30.70;1.00;;;;;;2276959;61;1326;-85
2022/06/24 08:01:33;503303.00;1.68;867.51;0.00;0.00;0.62;;;;;30.70;1.00;;;;;;2276879;61;1039;-85
2022/06/24 08:04:00;255403.00;0.85;441.24;0.00;0.00;0.62;;;;;30.60;1.00;;;;;;2276890;61;1109;-84
2022/06/24 08:06:27;375658.00;1.25;647.96;130015.00;0.43;225.36;;;;;30.40;1.00;;;;;;2276855;61;1113;-84
2022/06/24 08:08:54;234773.00;0.78;405.76;64918.00;0.22;112.98;;;;;30.10;1.00;;;;;;2276940;61;1290;-85
2022/06/24 08:11:22;623269.00;2.08;1074.42;96288.00;0.32;167.16;;;;;30.00;1.00;;;;;;2276819;61;1121;-85
2022/06/24 08:13:49;615833.00;2.05;1061.57;103574.00;0.35;179.74;;;;;30.20;1.00;;;;;;2276778;61;1998;-84
2022/06/24 08:16:16;646172.00;2.15;1114.01;50690.00;0.17;88.38;;;;;30.60;1.00;;;;;;2276742;61;1143;-86
2022/06/24 08:18:42;471923.00;1.57;813.50;56441.00;0.19;98.32;;;;;30.80;1.00;;;;;;2276745;61;1309;-85
2022/06/24 08:21:09;462893.00;1.54;797.96;74234.00;0.25;129.08;;;;;31.10;1.00;;;;;;2276710;61;1074;-87
2022/06/24 08:23:36;292736.00;0.98;505.43;64418.00;0.21;112.11;;;;;31.60;1.00;;;;;;2276758;61;1100;-84
2022/06/24 08:26:03;440258.00;1.47;759.03;113448.00;0.38;196.78;;;;;32.60;1.00;;;;;;2276735;61;1090;-83
2022/06/24 08:28:31;301598.00;1.01;520.67;66335.00;0.22;115.43;;;;;33.20;1.00;;;;;;2276481;61;1289;-84
2022/06/24 08:30:58;460122.00;1.53;793.19;61365.00;0.20;106.84;;;;;34.20;1.00;;;;;;2276637;61;1105;-84
2022/06/24 08:33:25;515373.00;1.72;888.30;102956.00;0.34;178.67;;;;;35.10;1.00;;;;;;2277056;61;1808;-84
2022/06/24 08:35:52;453755.00;1.51;782.24;58194.00;0.19;101.35;;;;;34.90;1.00;;;;;;2276853;61;2028;-83
2022/06/24 08:38:19;367969.00;1.23;634.75;61689.00;0.21;107.40;;;;;34.50;1.00;;;;;;2277038;61;1401;-85
2022/06/24 08:40:48;164725.00;0.55;285.18;54086.00;0.18;94.25;;;;;34.70;1.00;;;;;;2276801;61;1072;-84
2022/06/24 08:43:15;329800.00;1.10;569.14;55316.00;0.18;96.38;;;;;34.00;1.00;;;;;;2276762;61;1118;-85
2022/06/24 08:45:44;278105.00;0.93;480.28;60408.00;0.20;105.18;;;;;34.50;1.00;;;;;;2276850;61;1019;-84
2022/06/24 08:48:11;209332.00;0.70;361.99;58266.00;0.19;101.48;;;;;35.10;1.00;;;;;;2276758;61;1401;-85
2022/06/24 08:50:38;117749552.00;392.50;66131716.00;61963.00;0.21;107.87;;;;;35.60;1.00;;;;;;2276833;61;1119;-85
2022/06/24 08:53:07;209334.00;0.70;361.99;61157.00;0.20;106.48;;;;;36.00;1.00;;;;;;2276795;61;1039;-85
2022/06/24 08:55:36;242872.00;0.81;419.69;52734.00;0.18;91.91;;;;;35.30;1.00;;;;;;2276789;61;1915;-85
2022/06/24 08:58:07;246536.00;0.82;425.99;34305.00;0.11;60.03;;;;;34.30;1.00;;;;;;2276498;61;1325;-84
2022/06/24 09:00:34;534555.00;1.78;921.34;52832.00;0.18;92.08;;;;;34.70;1.00;;;;;;2276775;61;1078;-84
2022/06/24 09:03:03;343345.00;1.14;592.42;51119.00;0.17;89.12;;;;;35.20;1.00;;;;;;2276727;61;1161;-84
2022/06/24 09:05:31;371786.00;1.24;641.31;60419.00;0.20;105.20;;;;;35.20;1.00;;;;;;2276821;61;1114;-83
2022/06/24 09:08:04;464423.00;1.55;800.59;109234.00;0.36;189.51;;;;;35.90;1.00;;;;;;2276808;61;1281;-84
2022/06/24 09:10:32;302110.00;1.01;521.55;36870.00;0.12;64.47;;;;;36.20;1.00;;;;;;2276749;61;1192;-85
2022/06/24 09:12:58;249550.00;0.83;431.18;45994.00;0.15;80.26;;;;;36.00;1.00;;;;;;2276574;61;1084;-84
2022/06/24 09:15:26;299277.00;1.00;516.68;50399.00;0.17;87.88;;;;;35.60;1.00;;;;;;2276457;61;1919;-85
2022/06/24 09:17:54;168911.00;0.56;292.39;63012.00;0.21;109.68;;;;;35.60;1.00;;;;;;2276635;61;1368;-85
2022/06/24 09:20:24;290836.00;0.97;502.17;103541.00;0.35;179.68;;;;;35.10;1.00;;;;;;2276648;61;1073;-84
2022/06/24 09:23:01;42275.00;0.14;73.82;0.00;0.00;0.62;;;;;35.10;1.00;;;;;;2276750;61;1130;-84
2022/06/24 09:25:28;205816.00;0.69;355.93;61083.00;0.20;106.35;;;;;35.30;1.00;;;;;;2276651;61;1160;-84
2022/06/24 09:27:58;40482.00;0.13;70.72;0.00;0.00;0.62;;;;;35.20;1.00;;;;;;2276587;61;1313;-85
2022/06/24 09:30:35;120353472.00;401.18;70620984.00;0.00;0.00;0.62;;;;;34.90;1.00;;;;;;2276667;61;1091;-85
2022/06/24 09:33:02;170094.00;0.57;294.43;56964.00;0.19;99.23;;;;;34.80;1.00;;;;;;2276728;61;1039;-84
2022/06/24 09:35:35;133567.00;0.45;231.48;9590.00;0.03;17.24;;;;;34.30;1.00;;;;;;2276616;61;1944;-84
2022/06/24 09:38:02;197506.00;0.66;341.63;63149.00;0.21;109.92;;;;;33.70;1.00;;;;;;2276578;61;1458;-84
2022/06/24 09:40:31;344178.00;1.15;593.85;108755.00;0.36;188.68;;;;;33.20;1.00;;;;;;2276674;61;1139;-84